Time;durP1;ratioP1;P1;durP2;ratioP2;P2;SDS_P1;SDS_P2;PMS_P1;PMS_P2;Temp;Humidity;BMP_temperature;BMP_pressure;BME280_temperature;BME280_humidity;BME280_pressure;Samples;Min_cycle;Max_cycle;Signal;HPM_P1;HPM_P2
2023/12/29 00:00:20;;;;;;;19.20;10.60;;;;;;;-3.59;100.00;141403.88;107054;1264;25341;-64
2023/12/29 00:03:05;;;;;;;20.30;11.50;;;;;;;-3.53;100.00;141418.73;107092;1264;25340;-59
2023/12/29 00:05:51;;;;;;;21.10;10.60;;;;;;;-3.46;100.00;141436.34;107153;1263;25385;-64
2023/12/29 00:08:37;;;;;;;22.20;11.90;;;;;;;-3.39;100.00;141452.42;107213;1262;22525;-64
2023/12/29 00:11:22;;;;;;;18.10;11.20;;;;;;;-3.37;100.00;141457.16;107260;1263;25430;-61
2023/12/29 00:14:08;;;;;;;19.40;10.50;;;;;;;-3.34;100.00;141465.83;107239;1263;22516;-62
2023/12/29 00:16:57;;;;;;;20.20;11.40;;;;;;;-3.27;100.00;141481.69;107109;1266;25412;-65
2023/12/29 00:19:42;;;;;;;21.10;11.40;;;;;;;-3.21;100.00;141495.06;107351;1264;25338;-63
2023/12/29 00:22:29;;;;;;;21.70;11.60;;;;;;;-3.19;100.00;141500.78;107308;1264;25382;-63
2023/12/29 00:25:14;;;;;;;23.30;12.60;;;;;;;-3.16;100.00;141508.19;107245;1267;25375;-65
2023/12/29 00:28:00;;;;;;;23.90;13.40;;;;;;;-3.16;100.00;141509.19;107476;1263;25413;-63
2023/12/29 00:30:45;;;;;;;24.70;13.50;;;;;;;-3.18;100.00;141503.48;107140;1251;25360;-59
2023/12/29 00:33:46;;;;;;;26.30;12.60;;;;;;;-3.21;100.00;141496.05;107200;1263;25481;-65
2023/12/29 00:36:32;;;;;;;24.20;11.90;;;;;;;-3.20;100.00;141497.31;107126;1263;25414;-64
2023/12/29 00:39:18;;;;;;;20.60;11.60;;;;;;;-3.17;100.00;141505.47;107326;1267;25341;-63
2023/12/29 00:42:06;;;;;;;21.90;12.10;;;;;;;-3.13;100.00;141516.88;107259;1263;25360;-64
2023/12/29 00:44:51;;;;;;;22.30;12.50;;;;;;;-3.10;100.00;141524.33;107312;1263;25346;-62
2023/12/29 00:47:37;;;;;;;25.80;12.30;;;;;;;-3.09;100.00;141525.80;107185;1259;25487;-63
2023/12/29 00:50:23;;;;;;;25.20;13.10;;;;;;;-3.10;100.00;141522.58;107194;1263;25491;-67
2023/12/29 00:53:08;;;;;;;24.10;12.60;;;;;;;-3.14;100.00;141513.91;107167;1263;25355;-63
2023/12/29 00:55:55;;;;;;;27.40;14.10;;;;;;;-3.18;100.00;141503.73;107188;1263;25369;-63
2023/12/29 00:58:41;;;;;;;21.10;11.80;;;;;;;-3.20;100.00;141500.03;107312;1266;23283;-66
2023/12/29 01:01:26;;;;;;;23.50;12.50;;;;;;;-3.19;100.00;141500.53;107175;1253;25358;-63
2023/12/29 01:04:12;;;;;;;23.00;12.10;;;;;;;-3.15;100.00;141509.92;107187;1261;25264;-60
2023/12/29 01:06:58;;;;;;;23.70;12.70;;;;;;;-3.12;100.00;141517.63;107075;1263;25356;-67
2023/12/29 01:09:43;;;;;;;20.60;12.50;;;;;;;-3.13;100.00;141514.64;107155;1266;25399;-63
2023/12/29 01:12:29;;;;;;;23.40;12.40;;;;;;;-3.15;100.00;141510.44;107208;1263;25331;-65
2023/12/29 01:15:15;;;;;;;24.20;12.50;;;;;;;-3.16;100.00;141507.95;107251;1263;22513;-63
2023/12/29 01:18:01;;;;;;;24.10;12.70;;;;;;;-3.17;100.00;141506.72;107162;1263;25414;-62
2023/12/29 01:20:47;;;;;;;24.50;12.50;;;;;;;-3.17;100.00;141506.22;107054;1270;25430;-64
2023/12/29 01:23:33;;;;;;;23.90;13.40;;;;;;;-3.12;100.00;141518.59;107175;1266;25337;-65
2023/12/29 01:26:18;;;;;;;26.00;13.90;;;;;;;-3.10;100.00;141522.09;107294;1263;22589;-60
2023/12/29 01:29:06;;;;;;;22.40;13.20;;;;;;;-3.11;100.00;141520.84;107177;1263;25408;-66
2023/12/29 01:31:51;;;;;;;23.20;13.80;;;;;;;-3.09;100.00;141526.55;107154;1263;25475;-63
2023/12/29 01:34:37;;;;;;;23.00;12.80;;;;;;;-3.08;100.00;141529.28;107183;1263;25337;-65
2023/12/29 01:37:23;;;;;;;25.20;12.30;;;;;;;-3.05;100.00;141535.22;107217;1263;25337;-64
2023/12/29 01:40:10;;;;;;;19.70;12.00;;;;;;;-3.01;100.00;141544.16;107144;1254;22774;-62
2023/12/29 01:42:56;;;;;;;20.10;12.20;;;;;;;-2.95;100.00;141560.27;107129;1266;25341;-64
2023/12/29 01:45:41;;;;;;;18.90;11.60;;;;;;;-2.88;100.00;141577.36;107152;1263;25331;-65
2023/12/29 01:48:41;;;;;;;20.80;12.10;;;;;;;-2.80;100.00;141594.45;107097;1263;25331;-65
2023/12/29 01:51:27;;;;;;;23.50;13.80;;;;;;;-2.77;100.00;141602.16;107178;1263;25424;-66
2023/12/29 01:54:13;;;;;;;23.30;13.40;;;;;;;-2.73;100.00;141611.83;107113;1262;25257;-67
2023/12/29 01:57:02;;;;;;;20.30;12.30;;;;;;;-2.76;100.00;141604.88;107213;1264;26480;-64
2023/12/29 01:59:48;;;;;;;25.40;13.40;;;;;;;-2.83;100.00;141587.78;107206;1266;25414;-65
2023/12/29 02:02:34;;;;;;;23.20;12.10;;;;;;;-2.86;100.00;141581.59;107237;1266;24255;-68
2023/12/29 02:05:24;;;;;;;22.70;13.00;;;;;;;-2.85;100.00;141583.81;107322;1263;25339;-69
2023/12/29 02:08:11;;;;;;;20.00;12.30;;;;;;;-2.82;100.00;141590.25;107124;1263;25525;-59
2023/12/29 02:10:56;;;;;;;21.30;12.20;;;;;;;-2.83;100.00;141588.27;107039;1263;25413;-62
2023/12/29 02:13:42;;;;;;;23.80;12.50;;;;;;;-2.83;100.00;141587.78;107052;1263;25335;-64
2023/12/29 02:16:38;;;;;;;21.70;11.80;;;;;;;-2.84;100.00;141586.55;107069;1263;25338;-63
2023/12/29 02:19:44;;;;;;;21.40;11.50;;;;;;;-2.80;100.00;141595.47;107079;1263;25341;-60
2023/12/29 02:22:31;;;;;;;24.00;13.30;;;;;;;-2.72;100.00;141614.81;107066;1263;25392;-64
2023/12/29 02:25:17;;;;;;;22.50;12.60;;;;;;;-2.65;100.00;141630.92;107054;1266;25365;-66
2023/12/29 02:28:23;;;;;;;20.40;13.00;;;;;;;-2.63;100.00;141638.38;107023;1263;25418;-66
2023/12/29 02:31:17;;;;;;;29.80;13.90;;;;;;;-2.59;100.00;141647.30;107014;1263;25341;-66
2023/12/29 02:34:10;;;;;;;22.40;12.90;;;;;;;-2.55;100.00;141656.47;107045;1263;25360;-62
2023/12/29 02:36:58;;;;;;;22.70;13.40;;;;;;;-2.55;100.00;141656.97;107010;1273;25433;-65
2023/12/29 02:39:44;;;;;;;24.90;13.40;;;;;;;-2.52;100.00;141663.16;107067;1268;25477;-63
2023/12/29 02:42:31;;;;;;;23.40;12.90;;;;;;;-2.48;100.00;141674.59;107002;1263;25535;-65
2023/12/29 02:45:18;;;;;;;26.60;14.40;;;;;;;-2.42;100.00;141687.47;107076;1263;25490;-64
2023/12/29 02:48:04;;;;;;;27.70;15.20;;;;;;;-2.40;100.00;141693.67;107137;1262;25391;-67
2023/12/29 02:50:51;;;;;;;27.70;14.80;;;;;;;-2.41;100.00;141690.70;107024;1270;25490;-62
2023/12/29 02:53:36;;;;;;;25.80;14.30;;;;;;;-2.47;100.00;141676.58;107034;1267;25580;-66
2023/12/29 02:56:22;;;;;;;26.70;14.80;;;;;;;-2.52;100.00;141663.41;106988;1263;25331;-66
2023/12/29 02:59:08;;;;;;;26.40;14.60;;;;;;;-2.58;100.00;141649.77;107069;1263;25368;-63
2023/12/29 03:01:53;;;;;;;27.80;13.80;;;;;;;-2.58;100.00;141647.80;107153;1263;25490;-64
2023/12/29 03:04:40;;;;;;;25.40;14.30;;;;;;;-2.59;100.00;141647.78;107216;1263;25479;-63
2023/12/29 03:07:26;;;;;;;25.40;14.40;;;;;;;-2.57;100.00;141650.53;107250;1263;25524;-65
2023/12/29 03:10:11;;;;;;;23.10;13.20;;;;;;;-2.58;100.00;141648.03;107067;1272;25356;-63
2023/12/29 03:12:57;;;;;;;27.80;13.50;;;;;;;-2.58;100.00;141649.03;107204;1264;25356;-64
2023/12/29 03:15:43;;;;;;;23.90;13.70;;;;;;;-2.58;100.00;141649.52;107192;1263;25318;-63
2023/12/29 03:18:29;;;;;;;23.80;13.70;;;;;;;-2.62;100.00;141640.34;107246;1249;25322;-64
2023/12/29 03:21:15;;;;;;;21.70;13.20;;;;;;;-2.65;100.00;141632.41;107313;1264;25411;-67
2023/12/29 03:24:01;;;;;;;25.90;14.00;;;;;;;-2.62;100.00;141638.63;107189;1263;25347;-62
2023/12/29 03:26:46;;;;;;;25.40;14.70;;;;;;;-2.58;100.00;141648.53;107366;1263;25318;-64
2023/12/29 03:29:32;;;;;;;24.80;13.60;;;;;;;-2.59;100.00;141647.30;107337;1266;25443;-70
2023/12/29 03:32:19;;;;;;;19.60;12.10;;;;;;;-2.62;100.00;141640.09;107111;1263;25409;-67
2023/12/29 03:35:05;;;;;;;23.90;13.00;;;;;;;-2.66;100.00;141630.92;107105;1263;25474;-64
2023/12/29 03:37:51;;;;;;;19.40;12.20;;;;;;;-2.67;100.00;141626.20;107174;1266;25408;-67
2023/12/29 03:40:36;;;;;;;21.60;13.10;;;;;;;-2.66;100.00;141628.95;107108;1273;25337;-63
2023/12/29 03:43:22;;;;;;;23.00;13.10;;;;;;;-2.65;100.00;141631.41;107038;1263;25331;-65
2023/12/29 03:46:21;;;;;;;20.70;12.90;;;;;;;-2.64;100.00;141634.91;107153;1267;25382;-60
2023/12/29 03:49:07;;;;;;;27.00;13.20;;;;;;;-2.67;100.00;141628.69;107189;1263;25436;-65
2023/12/29 03:51:53;;;;;;;23.70;13.10;;;;;;;-2.71;100.00;141617.53;107215;1253;25395;-69
2023/12/29 03:54:39;;;;;;;21.40;12.50;;;;;;;-2.74;100.00;141610.09;107235;1263;25378;-65
2023/12/29 03:57:24;;;;;;;23.40;11.60;;;;;;;-2.75;100.00;141606.63;107196;1266;25369;-64
2023/12/29 04:00:14;;;;;;;25.00;12.50;;;;;;;-2.75;100.00;141608.13;106951;1263;25359;-67
2023/12/29 04:03:02;;;;;;;19.90;12.10;;;;;;;-2.75;100.00;141607.38;107021;1263;25389;-64
2023/12/29 04:05:47;;;;;;;23.70;13.40;;;;;;;-2.77;100.00;141601.41;107011;1273;25363;-64
2023/12/29 04:08:34;;;;;;;24.40;12.30;;;;;;;-2.79;100.00;141598.44;107053;1266;25322;-65
2023/12/29 04:11:19;;;;;;;23.30;13.00;;;;;;;-2.78;100.00;141598.95;107037;1272;25583;-64
2023/12/29 04:14:05;;;;;;;26.90;13.10;;;;;;;-2.77;100.00;141603.41;107073;1264;25334;-64
2023/12/29 04:16:51;;;;;;;19.70;12.70;;;;;;;-2.77;100.00;141601.66;107042;1273;25456;-63
2023/12/29 04:19:36;;;;;;;20.30;12.70;;;;;;;-2.80;100.00;141594.97;107018;1260;25414;-64
2023/12/29 04:22:22;;;;;;;18.80;12.90;;;;;;;-2.87;100.00;141580.09;106988;1263;25359;-64
2023/12/29 04:25:08;;;;;;;21.60;12.60;;;;;;;-2.96;100.00;141556.30;107005;1263;25324;-65
2023/12/29 04:27:54;;;;;;;25.70;13.30;;;;;;;-3.08;100.00;141528.78;107035;1263;22732;-65
2023/12/29 04:30:39;;;;;;;22.00;12.70;;;;;;;-3.18;100.00;141503.73;107053;1263;25382;-66
2023/12/29 04:33:26;;;;;;;20.50;10.80;;;;;;;-3.28;100.00;141478.97;107020;1263;25350;-64
2023/12/29 04:36:12;;;;;;;17.10;10.80;;;;;;;-3.39;100.00;141453.92;107053;1263;25362;-65
2023/12/29 04:38:58;;;;;;;21.30;12.00;;;;;;;-3.47;100.00;141432.61;106970;1263;25347;-65
2023/12/29 04:41:43;;;;;;;21.60;12.70;;;;;;;-3.56;100.00;141412.53;107069;1260;25359;-65
2023/12/29 04:44:29;;;;;;;20.20;11.70;;;;;;;-3.65;100.00;141388.25;107011;1273;25344;-66
2023/12/29 04:47:16;;;;;;;24.10;13.00;;;;;;;-3.75;100.00;141366.70;106958;1272;25381;-66
2023/12/29 04:50:02;;;;;;;24.00;13.90;;;;;;;-3.83;100.00;141345.16;107188;1260;25408;-66
2023/12/29 04:52:48;;;;;;;24.10;13.10;;;;;;;-3.93;100.00;141322.86;107101;1272;25440;-63
2023/12/29 04:55:34;;;;;;;26.80;13.60;;;;;;;-4.03;100.00;141298.59;107082;1263;25379;-65
2023/12/29 04:58:19;;;;;;;23.50;13.40;;;;;;;-4.10;100.00;141279.53;107189;1263;25436;-62
2023/12/29 05:01:05;;;;;;;22.10;13.50;;;;;;;-4.18;100.00;141263.67;107101;1269;25583;-66
2023/12/29 05:03:52;;;;;;;21.60;13.10;;;;;;;-4.25;100.00;141244.84;107146;1263;25490;-63
2023/12/29 05:06:37;;;;;;;20.70;12.50;;;;;;;-4.32;100.00;141227.78;107370;1263;25436;-66
2023/12/29 05:09:23;;;;;;;24.90;13.20;;;;;;;-4.40;100.00;141209.17;107092;1268;25350;-63
2023/12/29 05:12:09;;;;;;;22.60;12.60;;;;;;;-4.45;100.00;141195.83;107130;1267;25417;-68
2023/12/29 05:14:54;;;;;;;21.90;12.50;;;;;;;-4.49;100.00;141186.41;107255;1267;23240;-65
2023/12/29 05:17:40;;;;;;;24.50;12.60;;;;;;;-4.50;100.00;141184.44;107334;1268;23226;-63
2023/12/29 05:20:25;;;;;;;23.60;13.60;;;;;;;-4.53;100.00;141175.53;107235;1263;25347;-66
2023/12/29 05:23:11;;;;;;;21.60;13.90;;;;;;;-4.57;100.00;141166.13;107346;1264;23179;-64
2023/12/29 05:25:56;;;;;;;21.80;13.30;;;;;;;-4.66;100.00;141146.81;107312;1263;22764;-66
2023/12/29 05:28:42;;;;;;;23.30;13.60;;;;;;;-4.72;100.00;141131.22;107323;1267;25446;-61
2023/12/29 05:31:28;;;;;;;22.90;13.10;;;;;;;-4.75;100.00;141123.05;107050;1269;118230;-61
2023/12/29 05:34:13;;;;;;;23.10;13.60;;;;;;;-4.77;100.00;141117.88;107133;1264;25389;-64
2023/12/29 05:36:59;;;;;;;24.70;14.90;;;;;;;-4.79;100.00;141113.39;107126;1267;25679;-69
2023/12/29 05:39:45;;;;;;;22.40;12.80;;;;;;;-4.85;100.00;141101.02;107342;1273;24193;-66
2023/12/29 05:42:31;;;;;;;22.10;13.60;;;;;;;-4.90;100.00;141087.67;107177;1272;25385;-62
2023/12/29 05:45:17;;;;;;;22.90;12.90;;;;;;;-4.93;100.00;141080.98;107158;1263;25341;-62
2023/12/29 05:48:03;;;;;;;25.50;14.60;;;;;;;-4.93;100.00;141080.50;107209;1263;25331;-68
2023/12/29 05:50:53;;;;;;;23.60;14.10;;;;;;;-4.93;100.00;141079.73;107116;1269;25332;-66
2023/12/29 05:53:41;;;;;;;26.00;13.50;;;;;;;-4.94;100.00;141078.02;107231;1264;25405;-69
2023/12/29 05:56:28;;;;;;;24.50;14.90;;;;;;;-4.93;100.00;141079.27;107205;1263;24234;-65
2023/12/29 05:59:14;;;;;;;25.90;15.00;;;;;;;-4.95;100.00;141074.80;107271;1269;25313;-70
2023/12/29 06:01:59;;;;;;;26.90;15.20;;;;;;;-4.97;100.00;141068.84;107091;1266;25465;-64
2023/12/29 06:04:45;;;;;;;26.40;15.00;;;;;;;-4.99;100.00;141066.14;107221;1263;25557;-62
2023/12/29 06:07:31;;;;;;;26.60;14.30;;;;;;;-4.96;100.00;141071.34;107184;1270;25418;-67
2023/12/29 06:10:16;;;;;;;25.80;14.80;;;;;;;-4.93;100.00;141079.98;107152;1257;25369;-63
2023/12/29 06:13:03;;;;;;;26.90;14.50;;;;;;;-4.90;100.00;141087.42;107056;1263;25331;-64
2023/12/29 06:15:49;;;;;;;24.50;15.10;;;;;;;-4.87;100.00;141093.84;107267;1263;24241;-63
2023/12/29 06:18:35;;;;;;;25.10;14.00;;;;;;;-4.84;100.00;141101.28;107282;1272;25481;-67
2023/12/29 06:21:21;;;;;;;27.00;17.50;;;;;;;-4.67;100.00;141143.34;107145;1270;25478;-66
2023/12/29 06:24:06;;;;;;;30.20;17.90;;;;;;;-4.10;100.00;141281.52;107237;1263;25868;-64
2023/12/29 06:26:53;;;;;;;33.30;16.70;;;;;;;-3.30;100.00;141473.52;107079;1258;25443;-64
2023/12/29 06:29:42;;;;;;;30.60;16.50;;;;;;;-2.46;100.00;141677.55;107158;1270;25350;-67
2023/12/29 06:32:27;;;;;;;25.70;15.70;;;;;;;-1.63;100.00;141879.28;107065;1263;25490;-66
2023/12/29 06:35:13;;;;;;;27.10;16.40;;;;;;;-0.95;100.00;142045.39;107216;1264;25453;-64
2023/12/29 06:37:59;;;;;;;27.70;14.80;;;;;;;-0.25;100.00;142214.59;107049;1263;25408;-68
2023/12/29 06:40:45;;;;;;;23.30;14.40;;;;;;;0.31;100.00;142350.08;107134;1271;25332;-70
2023/12/29 06:43:31;;;;;;;21.30;13.50;;;;;;;0.91;100.00;142495.84;107147;1272;23306;-64
2023/12/29 06:46:17;;;;;;;22.30;13.30;;;;;;;1.51;100.00;142643.14;107191;1268;25408;-63
2023/12/29 06:49:03;;;;;;;23.00;12.90;;;;;;;2.00;100.00;142761.42;107339;1272;25359;-69
2023/12/29 06:51:49;;;;;;;21.20;12.90;;;;;;;2.29;100.00;142830.91;107227;1267;25379;-67
2023/12/29 06:54:34;;;;;;;22.10;12.40;;;;;;;2.22;98.92;142814.47;107299;1263;25350;-69
2023/12/29 06:57:20;;;;;;;22.80;13.90;;;;;;;2.23;94.73;142818.45;107164;1263;25234;-66
2023/12/29 07:00:06;;;;;;;21.60;13.00;;;;;;;2.40;89.59;142859.80;107153;1269;25359;-64
2023/12/29 07:02:52;;;;;;;21.60;11.70;;;;;;;2.75;87.99;142944.53;107146;1269;25462;-62
2023/12/29 07:05:38;;;;;;;21.90;12.00;;;;;;;3.33;82.80;143086.13;107185;1270;22527;-65
2023/12/29 07:08:23;;;;;;;18.90;11.70;;;;;;;3.94;73.44;143234.98;107188;1272;25325;-65
2023/12/29 07:11:11;;;;;;;20.70;12.50;;;;;;;4.33;70.28;143328.05;107043;1269;25584;-66
2023/12/29 07:13:57;;;;;;;19.90;12.20;;;;;;;4.58;67.94;143388.97;107131;1270;25398;-66
2023/12/29 07:16:44;;;;;;;22.30;13.30;;;;;;;4.90;66.12;143467.83;107053;1270;25431;-63
2023/12/29 07:19:36;;;;;;;25.10;13.30;;;;;;;5.26;64.15;143555.75;107244;1269;25312;-67
2023/12/29 07:22:21;;;;;;;19.00;12.90;;;;;;;5.73;62.38;143671.41;107100;1266;25328;-67
2023/12/29 07:25:07;;;;;;;20.00;12.00;;;;;;;6.11;60.56;143762.91;107306;1263;25459;-65
2023/12/29 07:27:55;;;;;;;18.30;11.30;;;;;;;6.51;58.70;143860.13;107320;1270;25341;-65
2023/12/29 07:30:41;;;;;;;18.20;11.10;;;;;;;6.97;57.11;143972.66;107454;1251;22529;-67
2023/12/29 07:33:27;;;;;;;18.70;11.00;;;;;;;7.07;55.69;143998.92;107151;1258;25443;-64
2023/12/29 07:36:13;;;;;;;20.10;11.70;;;;;;;6.79;55.91;143929.41;107066;1264;25449;-66
2023/12/29 07:39:00;;;;;;;15.20;10.60;;;;;;;6.71;55.70;143911.66;107125;1271;24235;-67
2023/12/29 07:41:48;;;;;;;19.70;10.70;;;;;;;6.35;56.09;143821.63;107118;1267;23328;-64
2023/12/29 07:44:34;;;;;;;17.10;11.30;;;;;;;6.02;56.72;143740.66;107364;1269;25400;-64
2023/12/29 07:47:19;;;;;;;20.40;12.50;;;;;;;5.58;57.80;143632.92;107363;1268;26604;-64
2023/12/29 07:50:05;;;;;;;19.60;11.50;;;;;;;5.04;58.81;143500.30;107353;1267;23282;-65
2023/12/29 07:52:51;;;;;;;18.50;11.50;;;;;;;4.58;59.87;143390.70;107159;1266;25401;-66
2023/12/29 07:55:39;;;;;;;18.20;11.00;;;;;;;4.08;61.42;143266.67;107094;1269;25346;-65
2023/12/29 07:58:25;;;;;;;17.50;11.30;;;;;;;3.74;62.93;143185.36;107160;1269;23261;-65
2023/12/29 08:01:10;;;;;;;18.10;11.20;;;;;;;3.60;63.69;143150.92;107071;1261;22617;-67
2023/12/29 08:03:56;;;;;;;17.10;10.80;;;;;;;3.36;64.38;143091.59;107003;1274;25344;-65
2023/12/29 08:06:42;;;;;;;15.30;10.30;;;;;;;2.93;65.75;142987.66;107012;1264;25465;-64
2023/12/29 08:09:28;;;;;;;23.70;11.60;;;;;;;2.46;67.40;142874.25;106969;1271;25411;-60
2023/12/29 08:12:14;;;;;;;18.60;10.70;;;;;;;2.49;68.86;142881.22;107057;1273;25334;-64
2023/12/29 08:15:00;;;;;;;17.70;10.50;;;;;;;2.59;69.01;142905.16;107033;1269;25350;-65
2023/12/29 08:17:45;;;;;;;17.80;10.30;;;;;;;2.74;68.78;142942.53;107080;1267;25356;-68
2023/12/29 08:20:31;;;;;;;18.00;10.60;;;;;;;2.72;68.90;142936.05;106993;1272;25347;-65
2023/12/29 08:23:17;;;;;;;17.20;10.70;;;;;;;2.59;69.00;142903.91;107017;1264;25399;-64
2023/12/29 08:26:03;;;;;;;15.40;10.70;;;;;;;2.18;69.92;142804.50;107042;1272;25353;-64
2023/12/29 08:28:48;;;;;;;17.90;10.80;;;;;;;1.72;71.54;142692.69;107149;1272;25322;-64
2023/12/29 08:31:34;;;;;;;21.70;11.80;;;;;;;1.57;73.37;142655.09;107105;1271;25405;-64
2023/12/29 08:34:20;;;;;;;17.90;11.20;;;;;;;1.49;74.30;142637.20;106999;1270;25398;-62
2023/12/29 08:37:06;;;;;;;21.60;11.70;;;;;;;1.32;74.85;142596.59;107005;1263;25359;-62
2023/12/29 08:39:52;;;;;;;18.90;9.80;;;;;;;1.04;76.20;142527.94;107083;1251;25392;-64
2023/12/29 08:42:38;;;;;;;20.90;11.60;;;;;;;0.86;77.89;142484.88;107341;1264;25393;-64
2023/12/29 08:45:24;;;;;;;17.10;11.40;;;;;;;0.87;78.59;142487.11;107071;1271;25325;-66
2023/12/29 08:48:10;;;;;;;18.70;11.30;;;;;;;0.83;79.05;142477.17;107031;1264;25486;-68
2023/12/29 08:50:56;;;;;;;21.90;13.40;;;;;;;0.75;79.85;142457.52;107034;1260;25433;-66
2023/12/29 08:53:42;;;;;;;20.20;11.40;;;;;;;0.68;80.56;142439.61;107126;1267;25402;-67
2023/12/29 08:56:29;;;;;;;19.10;10.50;;;;;;;0.54;81.36;142407.28;107142;1251;25436;-66
2023/12/29 08:59:14;;;;;;;18.20;11.60;;;;;;;0.47;82.18;142389.11;107177;1259;25341;-64
2023/12/29 09:02:00;;;;;;;17.70;11.30;;;;;;;0.54;83.19;142405.28;107227;1267;25331;-67
2023/12/29 09:04:46;;;;;;;17.70;13.40;;;;;;;0.87;83.19;142485.39;107204;1264;25520;-68
2023/12/29 09:07:32;;;;;;;17.40;10.90;;;;;;;1.17;81.67;142558.78;107428;1267;25565;-65
2023/12/29 09:10:18;;;;;;;16.20;10.10;;;;;;;1.38;80.58;142609.53;107769;1258;23230;-68
2023/12/29 09:13:05;;;;;;;16.10;9.90;;;;;;;1.57;79.40;142656.34;107768;1263;25411;-63
2023/12/29 09:15:50;;;;;;;17.50;10.00;;;;;;;1.59;78.75;142660.31;107570;1261;23839;-66
2023/12/29 09:18:36;;;;;;;19.30;11.10;;;;;;;1.45;78.54;142626.97;107148;1251;23757;-68
2023/12/29 09:21:22;;;;;;;15.30;9.60;;;;;;;1.34;78.63;142599.33;107229;1263;25359;-66
2023/12/29 09:24:08;;;;;;;16.00;10.40;;;;;;;1.17;79.43;142558.55;107047;1264;25348;-66
2023/12/29 09:26:54;;;;;;;19.80;10.80;;;;;;;1.07;79.92;142535.89;107013;1272;25946;-65
2023/12/29 09:29:40;;;;;;;17.30;9.90;;;;;;;0.89;80.38;142491.36;107185;1263;25366;-65
2023/12/29 09:32:26;;;;;;;15.00;9.20;;;;;;;0.75;81.48;142456.52;107072;1264;25356;-67
2023/12/29 09:35:15;;;;;;;16.20;10.50;;;;;;;0.61;82.13;142423.17;107177;1267;23305;-64
2023/12/29 09:38:05;;;;;;;16.50;9.90;;;;;;;0.57;83.05;142413.73;107239;1264;25452;-64
2023/12/29 09:40:53;;;;;;;18.30;9.80;;;;;;;0.52;83.60;142402.05;107153;1264;26503;-65
2023/12/29 09:43:40;;;;;;;17.60;10.40;;;;;;;0.46;84.27;142385.63;107128;1264;25619;-64
2023/12/29 09:46:31;;;;;;;17.20;10.40;;;;;;;0.42;84.74;142377.42;106971;1270;25490;-65
2023/12/29 09:49:19;;;;;;;20.00;11.60;;;;;;;0.48;85.20;142390.84;106957;1264;25548;-65
2023/12/29 09:52:09;;;;;;;16.80;10.30;;;;;;;0.53;85.56;142405.28;107118;1269;25324;-65
2023/12/29 09:54:55;;;;;;;17.90;11.50;;;;;;;0.51;85.91;142398.33;107060;1272;25479;-68
2023/12/29 09:57:41;;;;;;;20.80;11.60;;;;;;;0.50;86.50;142395.33;107029;1261;25418;-65
2023/12/29 10:00:29;;;;;;;17.70;10.30;;;;;;;0.53;86.88;142403.78;107028;1264;25322;-64
2023/12/29 10:03:14;;;;;;;21.00;11.50;;;;;;;0.54;86.57;142404.78;107073;1261;25331;-65
2023/12/29 10:06:07;;;;;;;18.10;11.50;;;;;;;0.52;86.85;142400.80;107281;1264;25407;-64
2023/12/29 10:08:57;;;;;;;18.50;11.00;;;;;;;0.45;86.75;142385.39;107080;1267;25389;-63
2023/12/29 10:11:48;;;;;;;21.10;12.00;;;;;;;0.43;87.21;142379.42;107008;1270;25376;-63
2023/12/29 10:14:49;;;;;;;19.30;11.40;;;;;;;0.45;87.57;142384.63;107060;1261;25538;-65
2023/12/29 10:17:50;;;;;;;19.60;10.80;;;;;;;0.51;87.38;142398.56;106970;1258;25356;-66
2023/12/29 10:20:57;;;;;;;21.80;11.30;;;;;;;0.56;87.02;142410.75;107075;1263;25487;-65
2023/12/29 10:23:57;;;;;;;21.20;11.20;;;;;;;0.56;86.85;142411.50;107001;1263;25477;-65
2023/12/29 10:26:44;;;;;;;20.70;11.90;;;;;;;0.58;86.74;142416.47;106942;1273;25359;-63
2023/12/29 10:29:30;;;;;;;19.10;12.80;;;;;;;0.63;86.69;142428.41;106999;1264;25363;-64
2023/12/29 10:32:15;;;;;;;20.80;13.30;;;;;;;0.59;86.78;142419.20;107069;1258;25350;-66
2023/12/29 10:35:09;;;;;;;26.50;14.60;;;;;;;0.61;86.95;142422.69;107054;1264;25527;-65
2023/12/29 10:38:09;;;;;;;23.80;14.40;;;;;;;0.56;87.09;142411.02;106971;1261;26275;-64
2023/12/29 10:40:54;;;;;;;19.30;13.20;;;;;;;0.47;87.18;142389.59;107070;1264;25350;-64
2023/12/29 10:43:44;;;;;;;23.80;14.20;;;;;;;0.47;87.59;142387.88;107218;1263;25376;-64
2023/12/29 10:46:30;;;;;;;24.70;14.90;;;;;;;0.50;87.93;142396.56;107002;1264;25322;-65
2023/12/29 10:49:18;;;;;;;23.30;14.00;;;;;;;0.49;87.99;142394.59;107035;1260;25340;-64
2023/12/29 10:52:12;;;;;;;26.20;14.50;;;;;;;0.42;88.48;142376.94;107029;1264;25378;-63
2023/12/29 10:55:07;;;;;;;23.50;14.00;;;;;;;0.38;89.10;142367.22;107100;1261;25390;-63
2023/12/29 10:58:00;;;;;;;22.80;12.70;;;;;;;0.36;89.79;142363.02;106996;1264;26579;-66
2023/12/29 11:00:46;;;;;;;17.40;11.40;;;;;;;0.37;89.83;142363.50;107057;1264;25670;-64
2023/12/29 11:03:32;;;;;;;18.40;11.20;;;;;;;0.38;90.18;142368.22;106976;1264;25412;-65
2023/12/29 11:06:18;;;;;;;17.50;11.50;;;;;;;0.44;90.23;142383.16;107213;1264;25394;-64
2023/12/29 11:09:05;;;;;;;18.00;10.60;;;;;;;0.52;90.17;142402.06;107204;1259;25331;-63
2023/12/29 11:11:51;;;;;;;20.50;11.10;;;;;;;0.58;89.60;142416.72;107007;1264;25332;-64
2023/12/29 11:14:40;;;;;;;19.00;11.80;;;;;;;0.61;89.71;142424.44;107008;1264;25414;-65
2023/12/29 11:17:26;;;;;;;21.60;12.30;;;;;;;0.59;89.52;142419.47;106965;1263;25357;-63
2023/12/29 11:20:14;;;;;;;17.30;11.30;;;;;;;0.55;89.72;142408.27;107087;1264;25388;-65
2023/12/29 11:23:01;;;;;;;14.80;10.10;;;;;;;0.48;89.82;142391.34;107033;1264;25315;-64
2023/12/29 11:25:48;;;;;;;19.40;11.10;;;;;;;0.40;90.38;142372.95;106951;1263;25532;-63
2023/12/29 11:28:35;;;;;;;17.10;10.90;;;;;;;0.31;90.61;142350.08;106992;1264;25588;-64
2023/12/29 11:31:22;;;;;;;19.00;10.80;;;;;;;0.18;91.48;142319.00;107097;1261;24184;-64
2023/12/29 11:34:16;;;;;;;20.00;11.70;;;;;;;0.08;92.45;142294.88;107057;1263;25511;-64
2023/12/29 11:37:18;;;;;;;19.20;11.90;;;;;;;0.01;93.33;142278.22;107061;1263;25408;-64
2023/12/29 11:40:33;;;;;;;21.00;11.70;;;;;;;-0.07;94.44;142258.56;107010;1274;25369;-64
2023/12/29 11:43:20;;;;;;;20.20;11.90;;;;;;;-0.15;95.68;142236.97;107109;1273;25360;-65
2023/12/29 11:46:05;;;;;;;18.90;11.30;;;;;;;-0.16;96.37;142235.72;107274;1263;25490;-65
2023/12/29 11:48:56;;;;;;;21.20;12.20;;;;;;;-0.10;96.72;142250.13;107245;1273;23307;-65
2023/12/29 11:51:48;;;;;;;18.80;12.20;;;;;;;-0.01;96.78;142272.27;107403;1266;25369;-63
2023/12/29 11:54:35;;;;;;;18.80;11.80;;;;;;;0.01;96.70;142277.50;107283;1260;22459;-63
2023/12/29 11:57:32;;;;;;;26.70;12.40;;;;;;;0.02;96.83;142280.20;107289;1263;25921;-66
2023/12/29 12:00:20;;;;;;;21.10;13.10;;;;;;;0.01;97.05;142277.23;107328;1262;25316;-64
2023/12/29 12:03:26;;;;;;;21.20;13.00;;;;;;;-0.03;97.23;142267.53;107047;1256;25359;-65
2023/12/29 12:06:41;;;;;;;24.60;13.10;;;;;;;-0.02;97.83;142270.77;107311;1264;25563;-65
2023/12/29 12:09:26;;;;;;;21.90;13.60;;;;;;;-0.04;97.97;142266.53;107313;1260;25497;-64
2023/12/29 12:12:12;;;;;;;20.10;12.70;;;;;;;-0.04;98.44;142265.28;107284;1263;23136;-64
2023/12/29 12:14:58;;;;;;;21.80;12.80;;;;;;;-0.03;98.54;142267.52;107497;1263;25353;-63
2023/12/29 12:17:46;;;;;;;19.90;12.20;;;;;;;-0.06;98.36;142261.33;107255;1264;25408;-63
2023/12/29 12:20:32;;;;;;;20.20;12.40;;;;;;;-0.08;98.64;142254.84;107258;1260;25386;-63
2023/12/29 12:23:19;;;;;;;21.50;11.50;;;;;;;-0.09;98.68;142252.13;107042;1263;25328;-63
2023/12/29 12:26:06;;;;;;;19.40;12.30;;;;;;;-0.07;98.82;142257.59;107260;1256;25351;-64
2023/12/29 12:28:53;;;;;;;17.50;11.40;;;;;;;-0.11;98.83;142247.41;107082;1257;25491;-64